Time;durP1;ratioP1;P1;durP2;ratioP2;P2;SDS_P1;SDS_P2;PMS_P1;PMS_P2;Temp;Humidity;BMP_temperature;BMP_pressure;BME280_temperature;BME280_humidity;BME280_pressure;Samples;Min_cycle;Max_cycle;Signal;HPM_P1;HPM_P2
2021/10/31 00:04:51;;;;;;;8.93;8.02;;;10.20;99.90;;;;;;7352786;19;20320;-83
2021/10/31 00:07:46;;;;;;;7.95;7.22;;;10.20;99.90;;;;;;7278988;19;2004454;-82
2021/10/31 00:10:38;;;;;;;8.85;7.78;;;10.20;99.90;;;;;;7310070;19;20396;-84
2021/10/31 00:13:18;;;;;;;9.13;8.02;;;10.30;99.90;;;;;;7350147;19;20333;-82
2021/10/31 00:19:18;;;;;;;9.70;7.30;;;10.40;99.90;;;;;;7270893;19;2004417;-82
2021/10/31 00:25:37;;;;;;;8.73;7.28;;;10.50;99.90;;;;;;7284455;19;20328;-85
2021/10/31 00:29:02;;;;;;;13.48;8.15;;;10.50;99.90;;;;;;7362826;19;20349;-84
2021/10/31 00:33:17;;;;;;;12.48;8.52;;;10.60;99.90;;;;;;7271234;19;20340;-84
2021/10/31 00:36:37;;;;;;;9.00;7.07;;;10.60;99.90;;;;;;7113130;19;2004531;-82
2021/10/31 00:39:09;;;;;;;9.70;7.47;;;10.70;99.90;;;;;;7293409;19;2004289;-81
2021/10/31 00:42:39;;;;;;;8.00;6.77;;;10.60;99.90;;;;;;7227183;19;2004442;-83
2021/10/31 00:45:41;;;;;;;7.47;6.78;;;10.60;99.90;;;;;;7283467;19;20344;-83
2021/10/31 00:49:08;;;;;;;8.77;7.78;;;10.60;99.90;;;;;;7346664;19;20312;-81
2021/10/31 00:52:19;;;;;;;8.50;7.63;;;10.50;99.90;;;;;;7124853;19;2004479;-81
2021/10/31 00:54:54;;;;;;;8.52;7.55;;;10.50;99.90;;;;;;7253979;19;2004521;-81
2021/10/31 00:58:15;;;;;;;9.05;8.18;;;10.50;99.90;;;;;;7132062;19;2004466;-81
2021/10/31 01:01:37;;;;;;;10.63;8.13;;;10.60;99.90;;;;;;7241714;19;2004467;-81
2021/10/31 01:05:26;;;;;;;8.38;7.53;;;10.70;99.90;;;;;;7244175;19;2004207;-82
2021/10/31 01:09:01;;;;;;;8.73;7.73;;;10.70;99.90;;;;;;7127861;19;2004493;-83
2021/10/31 01:19:36;;;;;;;8.57;7.68;;;10.60;99.90;;;;;;7355850;19;20324;-85
2021/10/31 01:23:47;;;;;;;10.02;8.40;;;10.50;99.90;;;;;;7240425;19;2004450;-83
2021/10/31 01:27:01;;;;;;;11.13;8.30;;;10.50;99.90;;;;;;7170913;19;2004451;-81
2021/10/31 01:29:43;;;;;;;13.30;8.63;;;10.40;99.90;;;;;;7018122;19;2004534;-81
2021/10/31 01:33:40;;;;;;;9.88;8.75;;;10.40;99.90;;;;;;7376708;19;20517;-86
2021/10/31 01:37:35;;;;;;;11.85;8.40;;;10.30;99.90;;;;;;7261276;19;2004578;-81
2021/10/31 01:41:17;;;;;;;9.50;8.52;;;10.30;99.90;;;;;;7297586;19;20373;-83
2021/10/31 05:47:30;;;;;;;8.10;7.30;;;9.20;99.90;;;;;;7399831;19;20316;-81
2021/10/31 07:22:02;;;;;;;10.05;8.93;;;10.20;99.90;;;;;;7342915;19;20320;-82
2021/10/31 07:50:51;;;;;;;10.40;9.40;;;11.20;99.90;;;;;;7417243;19;20348;-86
2021/10/31 07:53:17;;;;;;;11.93;9.07;;;11.20;99.90;;;;;;7416308;19;20324;-84
2021/10/31 07:55:48;;;;;;;10.37;9.10;;;11.30;99.90;;;;;;7399114;19;20674;-80
2021/10/31 07:58:16;;;;;;;9.57;8.68;;;11.50;99.90;;;;;;7396367;19;20776;-82
2021/10/31 08:00:42;;;;;;;10.65;9.55;;;11.40;99.90;;;;;;7396448;19;20309;-81
2021/10/31 08:03:07;;;;;;;10.23;8.17;;;11.40;99.90;;;;;;7395394;19;20308;-81
2021/10/31 08:05:33;;;;;;;10.50;8.38;;;11.40;99.90;;;;;;7394560;19;20429;-81
2021/10/31 08:07:59;;;;;;;10.37;9.37;;;11.50;99.90;;;;;;7394896;19;20323;-81
2021/10/31 08:10:25;;;;;;;14.32;9.52;;;11.60;99.90;;;;;;7395074;19;20698;-81
2021/10/31 08:12:50;;;;;;;10.90;9.80;;;11.70;99.90;;;;;;7396780;19;20425;-81
2021/10/31 08:15:16;;;;;;;11.43;10.17;;;11.80;99.90;;;;;;7395571;19;20340;-81
2021/10/31 08:17:41;;;;;;;10.57;9.48;;;11.90;99.90;;;;;;7401309;19;20325;-83
2021/10/31 08:20:07;;;;;;;14.57;12.93;;;12.00;99.90;;;;;;7398755;19;20309;-81
2021/10/31 08:22:33;;;;;;;10.88;8.82;;;12.10;99.90;;;;;;7399111;19;20357;-81
2021/10/31 08:25:00;;;;;;;12.45;11.13;;;12.30;99.90;;;;;;7397624;19;20309;-82
2021/10/31 08:27:25;;;;;;;10.32;8.95;;;12.30;99.90;;;;;;7403320;19;20789;-83
2021/10/31 08:29:52;;;;;;;11.63;9.67;;;12.50;99.90;;;;;;7403769;19;20377;-82
2021/10/31 08:32:18;;;;;;;10.63;9.52;;;12.50;99.90;;;;;;7404707;19;20320;-82
2021/10/31 08:34:43;;;;;;;9.65;8.18;;;12.60;99.90;;;;;;7412458;19;20407;-83
2021/10/31 08:37:09;;;;;;;9.75;7.90;;;12.70;99.90;;;;;;7410958;19;20312;-85
2021/10/31 08:39:34;;;;;;;10.02;8.57;;;12.80;99.90;;;;;;7408440;19;20413;-81
2021/10/31 08:42:00;;;;;;;9.02;7.97;;;12.80;99.90;;;;;;7407253;19;20365;-82
2021/10/31 08:44:27;;;;;;;8.90;8.00;;;12.90;99.90;;;;;;7411142;19;20324;-87
2021/10/31 08:46:54;;;;;;;11.30;9.93;;;12.90;99.90;;;;;;7422719;19;20309;-82
2021/10/31 08:49:20;;;;;;;10.87;9.70;;;12.90;99.90;;;;;;7394824;19;20782;-80
2021/10/31 08:51:58;;;;;;;9.18;8.00;;;13.00;99.90;;;;;;7403621;19;20355;-88
2021/10/31 08:54:24;;;;;;;8.63;7.53;;;13.00;99.90;;;;;;7422067;19;20341;-85
2021/10/31 08:56:50;;;;;;;9.13;8.23;;;13.10;99.90;;;;;;7419870;19;20328;-90
2021/10/31 08:59:17;;;;;;;8.90;7.28;;;13.20;99.90;;;;;;7424539;19;20342;-87
2021/10/31 09:29:07;;;;;;;9.32;7.97;;;13.40;99.90;;;;;;7422347;19;20329;-86
2021/10/31 09:31:33;;;;;;;9.50;7.88;;;13.50;99.90;;;;;;7422573;19;20352;-83
2021/10/31 09:34:00;;;;;;;10.53;9.27;;;13.50;99.90;;;;;;7423724;19;20342;-88
2021/10/31 09:36:28;;;;;;;9.32;8.30;;;13.50;99.90;;;;;;7420701;19;20368;-81
2021/10/31 09:38:54;;;;;;;9.00;8.07;;;13.60;99.90;;;;;;7416718;19;20351;-87
2021/10/31 09:41:21;;;;;;;9.23;8.32;;;13.70;99.90;;;;;;7421457;19;20325;-91
2021/10/31 09:43:52;;;;;;;10.82;8.85;;;13.80;99.90;;;;;;7419639;19;20373;-89
2021/10/31 09:46:18;;;;;;;11.00;9.27;;;13.90;99.90;;;;;;7419186;19;20304;-88
2021/10/31 09:48:44;;;;;;;9.23;8.25;;;13.90;99.90;;;;;;7418357;19;20328;-89
2021/10/31 09:51:10;;;;;;;8.53;7.73;;;14.10;99.90;;;;;;7419747;19;20834;-89
2021/10/31 09:53:35;;;;;;;9.90;8.80;;;14.10;99.90;;;;;;7418994;19;20320;-91
2021/10/31 09:56:02;;;;;;;8.73;7.87;;;14.20;99.90;;;;;;7419867;19;20306;-91
2021/10/31 09:58:36;;;;;;;9.93;8.88;;;14.30;99.90;;;;;;7420520;19;20341;-90
2021/10/31 10:01:14;;;;;;;8.32;7.53;;;14.30;99.90;;;;;;7420833;19;20313;-90
2021/10/31 10:03:40;;;;;;;10.23;8.07;;;14.40;99.90;;;;;;7418543;19;20447;-90
2021/10/31 10:06:12;;;;;;;9.63;8.07;;;14.40;99.90;;;;;;7410628;19;20320;-91
2021/10/31 10:08:38;;;;;;;8.95;8.02;;;14.50;99.90;;;;;;7421832;19;20292;-89
2021/10/31 10:11:15;;;;;;;9.43;7.93;;;14.60;99.90;;;;;;7419658;19;20360;-88
2021/10/31 10:13:41;;;;;;;8.73;7.80;;;14.60;99.90;;;;;;7418754;19;20320;-90
2021/10/31 10:16:19;;;;;;;8.33;7.53;;;14.70;99.90;;;;;;7421030;19;20336;-90
2021/10/31 10:18:46;;;;;;;8.13;7.32;;;14.60;99.90;;;;;;7408382;19;20335;-91
2021/10/31 10:30:16;;;;;;;10.68;8.18;;;14.90;99.90;;;;;;7419354;19;20324;-90
2021/10/31 10:32:53;;;;;;;6.83;6.20;;;15.10;99.90;;;;;;7417976;19;20360;-91
2021/10/31 10:35:19;;;;;;;8.50;6.93;;;15.10;99.90;;;;;;7415634;19;20349;-90
2021/10/31 10:37:47;;;;;;;9.60;8.57;;;15.20;99.90;;;;;;7419390;19;20374;-89
2021/10/31 10:40:20;;;;;;;7.63;6.87;;;15.30;99.90;;;;;;7418445;19;20328;-86
2021/10/31 10:42:50;;;;;;;8.82;7.90;;;15.40;99.90;;;;;;7312443;19;2006638;-90
2021/10/31 10:45:22;;;;;;;8.23;7.00;;;15.40;99.90;;;;;;7416808;19;20348;-89
2021/10/31 10:47:59;;;;;;;18.30;14.73;;;15.30;99.90;;;;;;7414335;19;20304;-88
2021/10/31 10:50:29;;;;;;;8.63;7.03;;;15.30;99.90;;;;;;7411046;19;20341;-88
2021/10/31 10:52:55;;;;;;;9.25;8.35;;;15.30;99.90;;;;;;7414057;19;20372;-87
2021/10/31 10:55:25;;;;;;;8.88;6.72;;;15.50;99.90;;;;;;7394404;19;20308;-90
2021/10/31 10:57:53;;;;;;;7.80;7.05;;;15.50;99.90;;;;;;7412770;19;20352;-91
2021/10/31 11:00:19;;;;;;;8.23;6.53;;;15.70;99.90;;;;;;7411085;19;20328;-91
2021/10/31 11:02:58;;;;;;;10.30;8.27;;;15.80;99.90;;;;;;7416214;19;20332;-88
2021/10/31 11:05:25;;;;;;;13.77;11.40;;;16.00;99.90;;;;;;7309395;19;2004600;-89
2021/10/31 11:07:51;;;;;;;8.15;7.32;;;16.10;99.90;;;;;;7413766;19;20368;-88
2021/10/31 11:10:18;;;;;;;8.43;7.63;;;16.30;99.90;;;;;;7414165;19;20320;-88
2021/10/31 11:12:44;;;;;;;8.23;7.38;;;16.30;99.90;;;;;;7414206;19;20388;-91
2021/10/31 11:15:14;;;;;;;8.30;7.10;;;16.40;99.90;;;;;;7411684;19;20434;-89
2021/10/31 11:17:40;;;;;;;8.00;7.13;;;16.50;99.90;;;;;;7412079;19;20316;-90
2021/10/31 11:20:08;;;;;;;7.70;6.45;;;16.50;99.90;;;;;;7414464;19;20311;-88
2021/10/31 11:22:34;;;;;;;9.48;7.30;;;16.50;99.90;;;;;;7410957;19;20376;-90
2021/10/31 11:25:10;;;;;;;7.32;6.57;;;16.60;99.90;;;;;;7411692;19;20337;-89
2021/10/31 11:27:35;;;;;;;6.53;5.85;;;16.60;99.90;;;;;;7412518;19;20363;-89
2021/10/31 11:30:01;;;;;;;8.52;7.38;;;16.70;99.90;;;;;;7419628;19;20309;-92
2021/10/31 11:32:29;;;;;;;8.27;6.00;;;16.80;99.90;;;;;;7415787;19;20345;-90
2021/10/31 11:34:57;;;;;;;6.90;6.13;;;16.90;99.90;;;;;;7417808;19;20316;-90
2021/10/31 11:37:26;;;;;;;6.95;6.25;;;17.00;99.90;;;;;;7421471;19;20360;-91
2021/10/31 11:39:54;;;;;;;6.95;6.25;;;17.00;99.90;;;;;;7416455;19;20344;-88
2021/10/31 11:42:21;;;;;;;8.10;6.90;;;16.90;99.90;;;;;;7377109;19;20308;-83
2021/10/31 11:45:04;;;;;;;7.25;6.55;;;17.00;99.90;;;;;;7415898;19;20919;-90
2021/10/31 11:47:30;;;;;;;7.85;6.70;;;17.10;99.90;;;;;;7313265;19;2004388;-86
2021/10/31 11:50:12;;;;;;;19.40;12.18;;;17.40;99.90;;;;;;7411482;19;20305;-88
2021/10/31 11:52:57;;;;;;;5.93;5.37;;;17.60;99.90;;;;;;7314832;19;2004269;-89
2021/10/31 11:55:27;;;;;;;5.75;5.18;;;17.60;99.90;;;;;;7309187;19;2004901;-87
2021/10/31 11:58:02;;;;;;;7.72;6.43;;;17.70;99.90;;;;;;7417729;19;20321;-86
2021/10/31 12:00:29;;;;;;;8.97;6.90;;;17.70;99.90;;;;;;7315367;19;2004093;-84
2021/10/31 12:03:08;;;;;;;5.20;4.72;;;17.70;99.90;;;;;;7417537;19;20329;-88
2021/10/31 12:05:48;;;;;;;6.45;5.78;;;17.70;99.90;;;;;;7314636;19;2004377;-85
2021/10/31 12:08:34;;;;;;;6.10;5.60;;;17.90;99.90;;;;;;7416882;19;20316;-89
2021/10/31 12:11:00;;;;;;;8.18;5.40;;;18.10;99.90;;;;;;7311001;19;2007729;-85
2021/10/31 12:13:26;;;;;;;6.80;6.10;;;18.20;99.90;;;;;;7414433;19;20323;-87
2021/10/31 12:16:04;;;;;;;6.13;5.53;;;18.40;99.90;;;;;;7416934;19;20345;-88
2021/10/31 12:18:52;;;;;;;5.47;4.82;;;18.60;99.90;;;;;;7412065;19;20344;-86
2021/10/31 12:21:24;;;;;;;6.90;6.25;;;18.50;99.90;;;;;;7415077;19;20325;-87
2021/10/31 12:23:58;;;;;;;5.15;4.65;;;18.40;99.90;;;;;;7414151;19;20300;-89
2021/10/31 12:26:24;;;;;;;6.07;5.45;;;18.30;99.90;;;;;;7412550;19;20361;-89
2021/10/31 12:28:50;;;;;;;6.00;5.40;;;18.30;99.90;;;;;;7414546;19;20312;-85
2021/10/31 12:31:23;;;;;;;5.43;4.90;;;18.10;99.90;;;;;;7414335;19;20321;-87
2021/10/31 12:34:09;;;;;;;8.15;7.22;;;18.20;99.90;;;;;;7415160;19;20301;-90
2021/10/31 12:36:35;;;;;;;7.78;6.30;;;18.10;99.90;;;;;;7398884;19;20333;-88
2021/10/31 12:39:22;;;;;;;5.03;4.47;;;17.90;99.90;;;;;;7415363;19;20328;-87
2021/10/31 12:42:15;;;;;;;6.25;5.65;;;18.00;99.90;;;;;;7310609;19;2004441;-87
2021/10/31 12:45:05;;;;;;;7.18;4.78;;;17.90;99.90;;;;;;7311061;19;2007527;-89
2021/10/31 12:47:53;;;;;;;8.20;5.63;;;17.90;99.90;;;;;;7307369;19;2009432;-87
2021/10/31 12:50:23;;;;;;;5.40;4.90;;;17.90;99.90;;;;;;7410420;19;20308;-81
2021/10/31 12:53:09;;;;;;;6.10;5.45;;;17.90;99.90;;;;;;7411120;19;20348;-88
2021/10/31 12:55:35;;;;;;;5.38;4.88;;;17.90;99.90;;;;;;7411731;19;20862;-87
2021/10/31 12:58:05;;;;;;;6.28;5.68;;;17.90;99.90;;;;;;7413874;19;20345;-91
2021/10/31 13:00:33;;;;;;;6.10;5.50;;;17.90;99.90;;;;;;7416251;19;20316;-89
2021/10/31 13:03:02;;;;;;;6.00;5.40;;;17.80;99.90;;;;;;7418924;19;20329;-92
2021/10/31 13:05:29;;;;;;;6.47;5.00;;;17.80;99.90;;;;;;7416127;19;20313;-88
2021/10/31 13:07:56;;;;;;;6.10;5.50;;;17.70;99.90;;;;;;7418050;19;20323;-91
2021/10/31 13:10:21;;;;;;;7.03;5.78;;;17.70;99.90;;;;;;7417570;19;20308;-88
2021/10/31 13:12:47;;;;;;;6.18;5.57;;;17.60;99.90;;;;;;7416113;19;20315;-90
2021/10/31 13:15:23;;;;;;;5.57;5.18;;;17.60;99.90;;;;;;7416709;19;20336;-92
2021/10/31 13:17:50;;;;;;;5.78;5.28;;;17.50;99.90;;;;;;7415368;19;20348;-92
2021/10/31 13:20:28;;;;;;;6.45;5.10;;;17.50;99.90;;;;;;7416966;19;20309;-87
2021/10/31 13:23:02;;;;;;;7.07;5.90;;;17.50;99.90;;;;;;7414908;19;20317;-87
2021/10/31 13:25:30;;;;;;;6.38;5.78;;;17.40;99.90;;;;;;7416942;19;20334;-90
2021/10/31 13:27:59;;;;;;;5.63;5.10;;;17.40;99.90;;;;;;7413943;19;20340;-88
2021/10/31 13:30:24;;;;;;;4.90;4.50;;;17.40;99.90;;;;;;7416208;19;20321;-92
2021/10/31 13:32:50;;;;;;;5.20;4.73;;;17.40;99.90;;;;;;7411814;19;20319;-90
2021/10/31 13:35:17;;;;;;;5.43;4.75;;;17.40;99.90;;;;;;7413815;19;20334;-86
2021/10/31 13:37:42;;;;;;;5.10;4.70;;;17.40;99.90;;;;;;7414873;19;20681;-91
2021/10/31 13:40:09;;;;;;;10.20;8.88;;;17.40;99.90;;;;;;7412425;19;20321;-91
2021/10/31 13:42:37;;;;;;;5.50;5.00;;;17.30;99.90;;;;;;7413972;19;20293;-84
2021/10/31 13:45:05;;;;;;;8.83;6.27;;;17.30;99.90;;;;;;7415440;19;20324;-90
2021/10/31 13:47:41;;;;;;;5.60;5.10;;;17.20;99.90;;;;;;7416537;19;20320;-88
2021/10/31 13:50:11;;;;;;;7.28;5.78;;;17.20;99.90;;;;;;7412768;19;20755;-88
2021/10/31 13:52:37;;;;;;;7.90;5.53;;;17.20;99.90;;;;;;7410665;19;20337;-90
2021/10/31 13:55:07;;;;;;;5.95;5.35;;;17.20;99.90;;;;;;7413171;19;20349;-84
2021/10/31 13:57:34;;;;;;;6.80;6.07;;;17.10;99.90;;;;;;7417859;19;20326;-88
2021/10/31 13:59:59;;;;;;;6.30;5.70;;;17.00;99.90;;;;;;7417186;19;20348;-88
2021/10/31 14:02:25;;;;;;;6.77;5.37;;;17.00;99.90;;;;;;7416858;19;20332;-87
2021/10/31 14:05:30;;;;;;;12.60;9.77;;;17.10;99.90;;;;;;7411783;19;20313;-85
2021/10/31 14:08:01;;;;;;;18.08;11.88;;;17.00;99.90;;;;;;7308490;19;2004408;-88
2021/10/31 14:10:39;;;;;;;9.30;6.32;;;17.00;99.90;;;;;;7411688;19;20333;-90
2021/10/31 14:13:15;;;;;;;77.78;47.88;;;17.00;99.90;;;;;;7411334;19;20413;-90
2021/10/31 14:15:42;;;;;;;15.35;11.32;;;17.00;99.90;;;;;;7407397;19;20364;-86
2021/10/31 14:18:09;;;;;;;8.60;6.75;;;17.10;99.90;;;;;;7412147;19;20309;-83
2021/10/31 14:20:38;;;;;;;4.95;4.45;;;17.00;99.90;;;;;;7409423;19;20308;-90
2021/10/31 14:23:07;;;;;;;6.78;5.40;;;16.90;99.90;;;;;;7410832;19;20349;-85
2021/10/31 14:25:42;;;;;;;6.22;5.40;;;16.90;99.90;;;;;;7410211;19;20384;-87
2021/10/31 14:28:19;;;;;;;5.70;4.93;;;16.80;99.90;;;;;;7411701;19;20761;-89
2021/10/31 14:31:03;;;;;;;6.35;5.60;;;16.70;99.90;;;;;;7411269;19;20345;-85
2021/10/31 14:33:34;;;;;;;5.20;4.53;;;16.70;99.90;;;;;;7408692;19;20340;-87
2021/10/31 14:36:29;;;;;;;7.03;5.30;;;16.60;99.90;;;;;;7413393;19;20332;-87
2021/10/31 14:38:56;;;;;;;5.28;4.70;;;16.60;99.90;;;;;;7304457;19;2004399;-87
2021/10/31 14:41:29;;;;;;;5.30;4.80;;;16.60;99.90;;;;;;7335283;19;20366;-88
2021/10/31 14:44:04;;;;;;;6.95;5.15;;;16.50;99.90;;;;;;7417244;19;20331;-88
2021/10/31 14:46:47;;;;;;;5.53;4.78;;;16.50;99.90;;;;;;7419264;19;20321;-88
2021/10/31 14:49:20;;;;;;;9.95;7.10;;;16.40;99.90;;;;;;7413850;19;20305;-88
2021/10/31 14:51:58;;;;;;;5.73;4.70;;;16.40;99.90;;;;;;7417245;19;20285;-89
2021/10/31 14:54:28;;;;;;;5.32;4.72;;;16.30;99.90;;;;;;7419308;19;20317;-87
2021/10/31 14:57:26;;;;;;;6.38;4.68;;;16.30;99.90;;;;;;7418503;19;20352;-87
2021/10/31 15:00:00;;;;;;;3.80;3.50;;;16.10;99.90;;;;;;7418563;19;20381;-88
2021/10/31 15:02:42;;;;;;;4.32;3.30;;;16.10;99.90;;;;;;7417904;19;20361;-90
2021/10/31 15:05:29;;;;;;;3.07;2.87;;;15.90;99.90;;;;;;6102531;19;10001244;-89
2021/10/31 15:07:55;;;;;;;4.30;3.60;;;16.00;99.90;;;;;;7412507;19;20339;-90
2021/10/31 15:10:23;;;;;;;4.25;3.85;;;16.00;99.90;;;;;;7383329;19;20330;-90
2021/10/31 15:13:28;;;;;;;4.20;3.80;;;15.90;99.90;;;;;;6003599;19;10001052;-88
2021/10/31 15:16:18;;;;;;;4.70;4.20;;;15.70;99.90;;;;;;7341849;19;20311;-85
2021/10/31 15:18:50;;;;;;;4.18;3.42;;;15.70;99.90;;;;;;7376074;19;20400;-90
2021/10/31 15:21:51;;;;;;;3.50;3.20;;;15.60;99.90;;;;;;7421101;19;20328;-87
2021/10/31 15:24:34;;;;;;;3.25;2.95;;;15.40;99.90;;;;;;7420462;19;20333;-90
2021/10/31 15:27:20;;;;;;;3.50;3.20;;;15.40;99.90;;;;;;7207158;19;2004331;-89
2021/10/31 15:29:46;;;;;;;5.97;4.28;;;15.40;99.90;;;;;;7385385;19;20385;-83
2021/10/31 15:32:12;;;;;;;4.05;3.65;;;15.20;99.90;;;;;;7374429;19;20344;-88
2021/10/31 15:34:51;;;;;;;4.10;3.80;;;15.00;99.90;;;;;;7399735;19;20638;-90
2021/10/31 15:37:19;;;;;;;4.38;3.97;;;14.90;99.90;;;;;;7415175;19;21223;-84
2021/10/31 15:39:53;;;;;;;5.00;4.50;;;14.70;99.90;;;;;;7417237;19;20316;-90
2021/10/31 15:42:19;;;;;;;5.25;4.30;;;14.50;99.90;;;;;;7409997;19;20337;-87
2021/10/31 15:44:46;;;;;;;7.07;4.67;;;14.40;99.90;;;;;;7415937;19;20292;-91
2021/10/31 15:47:12;;;;;;;4.05;3.75;;;14.40;99.90;;;;;;7415911;19;20309;-86
2021/10/31 15:49:37;;;;;;;5.77;4.30;;;14.50;99.90;;;;;;7409327;19;20356;-84
2021/10/31 15:52:11;;;;;;;4.45;4.05;;;14.40;99.90;;;;;;7412874;19;20285;-86
2021/10/31 15:54:44;;;;;;;4.53;4.13;;;14.40;99.90;;;;;;7292965;19;2004469;-85
2021/10/31 15:57:10;;;;;;;4.35;3.80;;;14.30;99.90;;;;;;7394895;19;20344;-88
2021/10/31 15:59:37;;;;;;;5.00;4.47;;;14.30;99.90;;;;;;7392020;19;20437;-86
2021/10/31 16:02:11;;;;;;;5.15;4.47;;;14.20;99.90;;;;;;7359152;19;20324;-84
2021/10/31 16:04:38;;;;;;;5.22;4.70;;;14.10;99.90;;;;;;7310705;19;2004232;-86
2021/10/31 16:07:09;;;;;;;4.82;4.20;;;14.10;99.90;;;;;;7397953;19;20329;-87
2021/10/31 16:09:41;;;;;;;5.80;4.88;;;14.00;99.90;;;;;;7419577;19;20352;-87
2021/10/31 16:12:20;;;;;;;5.57;4.38;;;14.00;99.90;;;;;;7384464;19;20341;-87
2021/10/31 16:14:47;;;;;;;5.32;4.82;;;14.00;99.90;;;;;;7415111;19;20365;-90
2021/10/31 16:17:22;;;;;;;6.55;5.13;;;14.00;99.90;;;;;;7425541;19;20310;-84
2021/10/31 16:19:48;;;;;;;5.20;4.70;;;13.90;99.90;;;;;;7319998;19;2004473;-84
2021/10/31 16:22:29;;;;;;;5.38;4.47;;;13.90;99.90;;;;;;7420984;19;20313;-81
2021/10/31 16:24:56;;;;;;;4.75;4.22;;;13.90;99.90;;;;;;7420711;19;20345;-82
2021/10/31 16:27:22;;;;;;;5.03;4.40;;;13.80;99.90;;;;;;7419392;19;20296;-84
2021/10/31 16:29:59;;;;;;;4.93;4.50;;;13.80;99.90;;;;;;7413505;19;20301;-84
2021/10/31 16:32:40;;;;;;;7.37;4.60;;;13.70;99.90;;;;;;7420488;19;20357;-83
2021/10/31 16:35:23;;;;;;;7.20;5.03;;;13.70;99.90;;;;;;7418002;19;20320;-82
2021/10/31 16:38:10;;;;;;;5.93;4.45;;;13.70;99.90;;;;;;7328222;19;20389;-89
2021/10/31 16:40:36;;;;;;;5.97;5.38;;;13.70;99.90;;;;;;7312359;19;20320;-82
2021/10/31 16:43:22;;;;;;;6.30;5.37;;;13.60;99.90;;;;;;7428240;19;20352;-83
2021/10/31 16:45:48;;;;;;;6.72;6.13;;;13.60;99.90;;;;;;7427708;19;20356;-85
2021/10/31 16:48:16;;;;;;;11.38;8.73;;;13.50;99.90;;;;;;7421204;19;20285;-82
2021/10/31 16:50:42;;;;;;;15.95;12.52;;;13.50;99.90;;;;;;7404881;19;20360;-80
2021/10/31 16:53:46;;;;;;;7.25;5.80;;;13.40;99.90;;;;;;7373897;19;20308;-85
2021/10/31 16:56:12;;;;;;;7.17;6.47;;;13.40;99.90;;;;;;6113231;19;10001267;-86
2021/10/31 16:58:38;;;;;;;8.38;6.65;;;13.40;99.90;;;;;;7401244;19;20296;-91
2021/10/31 17:01:04;;;;;;;7.13;5.87;;;13.30;99.90;;;;;;7424802;19;20324;-89
2021/10/31 17:03:30;;;;;;;5.78;4.85;;;13.30;99.90;;;;;;7424530;19;20336;-86
2021/10/31 17:05:55;;;;;;;5.13;4.63;;;13.20;99.90;;;;;;7424426;19;20658;-87
2021/10/31 17:08:23;;;;;;;5.95;4.88;;;13.30;99.90;;;;;;7367128;19;20333;-87
2021/10/31 17:10:57;;;;;;;6.72;5.45;;;13.20;99.90;;;;;;7421567;19;20369;-88
2021/10/31 17:13:23;;;;;;;6.82;5.43;;;13.10;99.90;;;;;;7424394;19;20332;-89
2021/10/31 17:15:50;;;;;;;5.97;4.32;;;13.10;99.90;;;;;;7358618;19;20353;-85
2021/10/31 17:18:19;;;;;;;4.80;4.30;;;13.00;99.90;;;;;;7421927;19;20339;-88
2021/10/31 17:20:45;;;;;;;5.70;5.07;;;12.90;99.90;;;;;;7424642;19;20714;-88
2021/10/31 17:23:13;;;;;;;7.72;6.38;;;12.90;99.90;;;;;;7419170;19;20431;-87
2021/10/31 17:25:42;;;;;;;5.82;5.07;;;12.90;99.90;;;;;;7401340;19;20359;-87
2021/10/31 17:28:11;;;;;;;5.80;4.13;;;12.80;99.90;;;;;;7421305;19;20384;-88
2021/10/31 17:30:37;;;;;;;5.10;4.60;;;12.80;99.90;;;;;;7400681;19;20579;-88
2021/10/31 17:33:03;;;;;;;5.57;4.65;;;12.80;99.90;;;;;;7399614;19;20337;-89
2021/10/31 17:35:33;;;;;;;5.40;4.75;;;12.60;99.90;;;;;;7422725;19;20358;-89
2021/10/31 17:37:59;;;;;;;4.20;3.80;;;12.50;99.90;;;;;;7423756;19;20786;-89
2021/10/31 17:40:29;;;;;;;6.10;4.40;;;12.50;99.90;;;;;;7376532;19;20373;-87
2021/10/31 17:42:55;;;;;;;4.35;3.95;;;12.40;99.90;;;;;;7400272;19;20305;-87
2021/10/31 17:45:21;;;;;;;6.68;5.97;;;12.30;99.90;;;;;;7423208;19;20321;-87
2021/10/31 17:47:50;;;;;;;5.93;5.33;;;12.30;99.90;;;;;;7419835;19;20368;-87
2021/10/31 17:50:21;;;;;;;5.70;5.10;;;12.20;99.90;;;;;;7421913;19;20744;-88
2021/10/31 17:52:47;;;;;;;4.65;4.10;;;12.10;99.90;;;;;;7422150;19;20323;-87
2021/10/31 17:55:13;;;;;;;6.20;5.60;;;12.10;99.90;;;;;;7419704;19;20346;-89
2021/10/31 17:57:41;;;;;;;6.70;5.50;;;12.10;99.90;;;;;;7398468;19;20360;-87
2021/10/31 18:00:17;;;;;;;7.47;6.45;;;12.10;99.90;;;;;;7421820;19;20388;-89
2021/10/31 18:02:43;;;;;;;5.65;5.03;;;12.00;99.90;;;;;;7318302;19;2005343;-87
2021/10/31 18:05:09;;;;;;;6.37;5.70;;;12.00;99.90;;;;;;7419050;19;20340;-86
2021/10/31 18:07:35;;;;;;;8.90;7.25;;;11.90;99.90;;;;;;7420186;19;20378;-88
2021/10/31 18:10:03;;;;;;;8.68;6.78;;;12.00;99.90;;;;;;7418293;19;20321;-84
2021/10/31 18:12:28;;;;;;;9.18;6.90;;;11.90;99.90;;;;;;7419988;19;20348;-84
2021/10/31 18:14:54;;;;;;;8.10;6.27;;;11.90;99.90;;;;;;7419212;19;20340;-84
2021/10/31 18:17:20;;;;;;;8.52;7.50;;;11.90;99.90;;;;;;7416679;19;20348;-85
2021/10/31 18:19:45;;;;;;;8.77;7.87;;;11.90;99.90;;;;;;7417713;19;20317;-83
2021/10/31 18:22:11;;;;;;;8.00;6.82;;;11.90;99.90;;;;;;7418598;19;20345;-86
2021/10/31 18:24:38;;;;;;;6.55;5.13;;;11.90;99.90;;;;;;7418119;19;20336;-86
2021/10/31 18:27:04;;;;;;;5.95;5.35;;;11.90;99.90;;;;;;7419211;19;20337;-89
2021/10/31 18:29:29;;;;;;;5.30;4.80;;;11.90;99.90;;;;;;7420087;19;20321;-88
2021/10/31 18:31:55;;;;;;;6.73;5.80;;;11.90;99.90;;;;;;7419632;19;20603;-86
2021/10/31 18:34:21;;;;;;;6.30;5.70;;;11.90;99.90;;;;;;7419840;19;20344;-86
2021/10/31 18:36:51;;;;;;;7.00;6.28;;;11.90;99.90;;;;;;7415782;19;20333;-86
2021/10/31 18:39:18;;;;;;;8.77;7.05;;;11.90;99.90;;;;;;7416530;19;20367;-86
2021/10/31 18:41:43;;;;;;;6.35;5.75;;;11.80;99.90;;;;;;7416934;19;20332;-85
2021/10/31 18:44:11;;;;;;;6.22;5.63;;;11.90;99.90;;;;;;7418099;19;20317;-84
2021/10/31 18:46:37;;;;;;;10.00;8.52;;;11.90;99.90;;;;;;7416853;19;20332;-87
2021/10/31 18:49:04;;;;;;;9.70;7.27;;;11.80;99.90;;;;;;7420141;19;20367;-87
2021/10/31 18:51:30;;;;;;;8.87;7.53;;;11.80;99.90;;;;;;7417404;19;20324;-85
2021/10/31 18:53:55;;;;;;;8.20;6.65;;;11.80;99.90;;;;;;7395632;19;20332;-86
2021/10/31 18:56:21;;;;;;;7.47;6.33;;;11.80;99.90;;;;;;7416297;19;20336;-88
2021/10/31 18:58:47;;;;;;;6.63;5.57;;;11.80;99.90;;;;;;7418111;19;20343;-86
2021/10/31 19:01:13;;;;;;;6.65;5.78;;;11.90;99.90;;;;;;7417442;19;20353;-83
2021/10/31 19:03:39;;;;;;;6.85;6.25;;;11.80;99.90;;;;;;7416930;19;20378;-84
2021/10/31 19:06:09;;;;;;;5.67;5.07;;;11.90;99.90;;;;;;7415555;19;20366;-86
2021/10/31 19:08:35;;;;;;;6.43;5.80;;;11.80;99.90;;;;;;7418742;19;20351;-87
2021/10/31 19:11:01;;;;;;;8.63;5.50;;;11.80;99.90;;;;;;7418933;19;20312;-84
2021/10/31 19:13:27;;;;;;;7.20;5.55;;;11.80;99.90;;;;;;7417840;19;20347;-88
2021/10/31 19:15:52;;;;;;;7.93;6.50;;;11.70;99.90;;;;;;7417918;19;20356;-87
2021/10/31 19:18:18;;;;;;;7.13;6.43;;;11.70;99.90;;;;;;7418575;19;20353;-87
2021/10/31 19:20:46;;;;;;;5.83;5.30;;;11.70;99.90;;;;;;7416996;19;20387;-87
2021/10/31 19:23:13;;;;;;;6.15;5.55;;;11.70;99.90;;;;;;7418646;19;20355;-87
2021/10/31 19:25:40;;;;;;;6.78;5.95;;;11.60;99.90;;;;;;7417431;19;20339;-87
2021/10/31 19:28:07;;;;;;;5.72;5.03;;;11.60;99.90;;;;;;7412887;19;20333;-87
2021/10/31 19:30:36;;;;;;;5.82;5.20;;;11.60;99.90;;;;;;7414923;19;20356;-86
2021/10/31 19:33:02;;;;;;;9.27;6.43;;;11.60;99.90;;;;;;7415020;19;20340;-86
2021/10/31 19:35:28;;;;;;;6.93;6.23;;;11.50;99.90;;;;;;7412184;19;20777;-85
2021/10/31 19:37:54;;;;;;;7.35;6.45;;;11.50;99.90;;;;;;7416297;19;20340;-89
2021/10/31 19:40:21;;;;;;;8.68;6.57;;;11.50;99.90;;;;;;7416588;19;20337;-87
2021/10/31 19:42:48;;;;;;;5.97;5.33;;;11.50;99.90;;;;;;7393755;19;20344;-88
2021/10/31 19:45:16;;;;;;;6.38;5.60;;;11.50;99.90;;;;;;7399039;19;20324;-83
2021/10/31 19:47:45;;;;;;;7.40;5.60;;;11.60;99.90;;;;;;7393713;19;20371;-87
2021/10/31 19:50:11;;;;;;;6.57;5.85;;;11.70;99.90;;;;;;7413927;19;20332;-86
2021/10/31 19:52:37;;;;;;;6.60;5.17;;;11.70;99.90;;;;;;7400050;19;20328;-84
2021/10/31 19:55:03;;;;;;;7.93;5.85;;;11.70;99.90;;;;;;7421785;19;20320;-84
2021/10/31 19:57:28;;;;;;;5.90;5.30;;;11.70;99.90;;;;;;7418727;19;20397;-84
2021/10/31 19:59:54;;;;;;;6.57;5.70;;;11.70;99.90;;;;;;7421849;19;20336;-88
2021/10/31 20:02:21;;;;;;;6.60;5.25;;;11.70;99.90;;;;;;7423727;19;21765;-87
2021/10/31 20:04:47;;;;;;;5.40;4.90;;;11.80;99.90;;;;;;7420717;19;20360;-85
2021/10/31 20:07:15;;;;;;;6.07;5.25;;;11.70;99.90;;;;;;7421522;19;20344;-87
2021/10/31 20:09:41;;;;;;;5.97;4.90;;;11.90;99.90;;;;;;7421471;19;20403;-87
2021/10/31 20:12:08;;;;;;;9.27;5.57;;;11.90;99.90;;;;;;7423230;19;20418;-86
2021/10/31 20:14:38;;;;;;;6.25;4.97;;;11.90;99.90;;;;;;7424643;19;20386;-88